KDUJ/DUJ METAR and TAF weather

Enter ICAO airport designator
Station Type Date Time Source
KDUJ METAR 2019/06/16 07:12 UTC NOAA

KDUJ 160712Z AUTO VRB03KT 4SM -RA BR SCT005 OVC042 16/16 A2990 RMK AO2 P0001 T01610156


Station Type Date Time Source
KDUJ Decoded METAR 2019/06/16 07:12 UTC NOAA

DU BOIS-JEFFERSON COUNTY, PA, United States (KDUJ) 41-11N 078-53W
Jun 16, 2019 - 03:12 AM EDT / 2019.06.16 0712 UTC
Wind: Variable at 3 MPH (3 KT):0
Visibility: 4 mile(s):0
Sky conditions: overcast
Weather: light rain; mist
Precipitation last hour: 0.01 inches
Temperature: 61.0 F (16.1 C)
Dew Point: 60.1 F (15.6 C)
Relative Humidity: 96%
Pressure (altimeter): 29.9 in. Hg (1012 hPa)
ob: KDUJ 160712Z AUTO VRB03KT 4SM -RA BR SCT005 OVC042 16/16 A2990 RMK AO2 P0001 T01610156
cycle: 7

Station Type Date Time Source
KDUJ TAF 2019/06/16 06:42 UTC NOAA

TAF KDUJ 160539Z 1606/1706 19005KT 2SM -SHRA BR OVC015
FM161100 24007KT 2SM -SHRA OVC008
FM161700 28006KT 4SM -SHRA VCTS OVC015CB
FM162300 27004KT P6SM VCTS OVC015CB
FM170300 VRB03KT 4SM BR VCSH OVC015

Example: see airport list